Time;durP1;ratioP1;P1;durP2;ratioP2;P2;SDS_P1;SDS_P2;PMS_P1;PMS_P2;Temp;Humidity;BMP_temperature;BMP_pressure;BME280_temperature;BME280_humidity;BME280_pressure;Samples;Min_cycle;Max_cycle;Signal;HPM_P1;HPM_P2
2022/03/31 00:01:29;;;;;;;;;;;;;;;;;;5055701;28;19920;-47
2022/03/31 00:03:54;;;;;;;;;;;;;;;;;;5055011;28;19905;-48
2022/03/31 00:06:19;;;;;;;;;;;;;;;;;;5055959;28;19917;-49
2022/03/31 00:08:44;;;;;;;;;;;;;;;;;;5055477;28;20291;-47
2022/03/31 00:11:09;;;;;;;;;;;;;;;;;;5043341;28;19970;-48
2022/03/31 00:13:34;;;;;;;;;;;;;;;;;;5036060;28;19909;-48
2022/03/31 00:15:59;;;;;;;;;;;;;;;;;;5035676;28;19917;-48
2022/03/31 00:18:25;;;;;;;;;;;;;;;;;;5042971;28;19971;-49
2022/03/31 00:20:50;;;;;;;;;;;;;;;;;;5055877;28;19909;-48
2022/03/31 00:23:15;;;;;;;;;;;;;;;;;;5037058;28;19917;-49
2022/03/31 00:25:40;;;;;;;;;;;;;;;;;;5035582;28;19917;-47
2022/03/31 00:28:05;;;;;;;;;;;;;;;;;;5039089;28;19920;-47
2022/03/31 00:30:30;;;;;;;;;;;;;;;;;;5051122;28;19913;-50
2022/03/31 00:32:56;;;;;;;;;;;;;;;;;;5038068;28;19914;-47
2022/03/31 00:35:21;;;;;;;;;;;;;;;;;;5035388;28;19949;-48
2022/03/31 00:37:46;;;;;;;;;;;;;;;;;;5035791;28;19913;-47
2022/03/31 00:40:11;;;;;;;;;;;;;;;;;;5052533;28;19956;-50
2022/03/31 00:42:37;;;;;;;;;;;;;;;;;;5035468;28;19933;-48
2022/03/31 00:45:02;;;;;;;;;;;;;;;;;;5035405;28;20399;-48
2022/03/31 00:47:27;;;;;;;;;;;;;;;;;;5035682;28;19917;-47
2022/03/31 00:49:52;;;;;;;;;;;;;;;;;;5035013;28;20352;-47
2022/03/31 00:52:17;;;;;;;;;;;;;;;;;;5034579;28;20268;-49
2022/03/31 00:54:43;;;;;;;;;;;;;;;;;;5035008;28;19917;-49
2022/03/31 00:57:08;;;;;;;;;;;;;;;;;;5034944;28;20003;-47
2022/03/31 00:59:33;;;;;;;;;;;;;;;;;;5041323;28;19920;-47
2022/03/31 01:01:59;;;;;;;;;;;;;;;;;;5047307;28;19975;-47
2022/03/31 01:04:24;;;;;;;;;;;;;;;;;;5034665;28;19932;-47
2022/03/31 01:06:50;;;;;;;;;;;;;;;;;;5034991;28;19913;-51
2022/03/31 01:09:15;;;;;;;;;;;;;;;;;;5035012;28;19909;-47
2022/03/31 01:11:40;;;;;;;;;;;;;;;;;;5039141;28;19956;-47
2022/03/31 01:14:06;;;;;;;;;;;;;;;;;;5034904;28;19933;-48
2022/03/31 01:16:31;;;;;;;;;;;;;;;;;;5035601;28;19940;-48
2022/03/31 01:18:57;;;;;;;;;;;;;;;;;;5054915;28;19916;-47
2022/03/31 01:21:22;;;;;;;;;;;;;;;;;;5054253;28;19920;-48
2022/03/31 01:23:47;;;;;;;;;;;;;;;;;;5054754;28;19908;-47
2022/03/31 01:26:12;;;;;;;;;;;;;;;;;;5054630;28;19913;-47
2022/03/31 01:28:37;;;;;;;;;;;;;;;;;;5044599;28;19913;-47
2022/03/31 01:31:02;;;;;;;;;;;;;;;;;;5034203;28;20253;-47
2022/03/31 01:33:28;;;;;;;;;;;;;;;;;;5034384;28;19921;-48
2022/03/31 01:35:53;;;;;;;;;;;;;;;;;;5053720;28;19913;-47
2022/03/31 01:38:18;;;;;;;;;;;;;;;;;;5039008;28;19921;-47
2022/03/31 01:40:43;;;;;;;;;;;;;;;;;;5034893;28;19914;-47
2022/03/31 01:43:09;;;;;;;;;;;;;;;;;;5048835;28;19919;-47
2022/03/31 01:45:34;;;;;;;;;;;;;;;;;;5039889;28;19917;-47
2022/03/31 01:47:59;;;;;;;;;;;;;;;;;;5045377;28;19912;-48
2022/03/31 01:50:24;;;;;;;;;;;;;;;;;;5054510;28;19955;-47
2022/03/31 01:52:49;;;;;;;;;;;;;;;;;;5052892;28;19921;-49
2022/03/31 01:55:14;;;;;;;;;;;;;;;;;;5054089;28;19920;-47
2022/03/31 01:57:39;;;;;;;;;;;;;;;;;;5052306;28;20321;-47
2022/03/31 02:00:05;;;;;;;;;;;;;;;;;;5034245;28;19920;-47
2022/03/31 02:02:30;;;;;;;;;;;;;;;;;;5044981;28;19913;-48
2022/03/31 02:04:55;;;;;;;;;;;;;;;;;;5050241;28;19913;-48
2022/03/31 02:07:20;;;;;;;;;;;;;;;;;;5033710;28;19913;-47
2022/03/31 02:09:45;;;;;;;;;;;;;;;;;;5034310;28;19928;-48
2022/03/31 02:12:10;;;;;;;;;;;;;;;;;;5039617;28;19953;-49
2022/03/31 02:14:37;;;;;;;;;;;;;;;;;;5055887;28;19920;-48
2022/03/31 02:17:02;;;;;;;;;;;;;;;;;;5057713;28;19999;-49
2022/03/31 02:19:27;;;;;;;;;;;;;;;;;;5057905;28;19952;-48
2022/03/31 02:21:53;;;;;;;;;;;;;;;;;;5049761;28;19996;-48
2022/03/31 02:24:18;;;;;;;;;;;;;;;;;;5040378;28;20331;-49
2022/03/31 02:26:43;;;;;;;;;;;;;;;;;;5047503;28;19921;-49
2022/03/31 02:29:09;;;;;;;;;;;;;;;;;;5038208;28;19960;-49
2022/03/31 02:31:34;;;;;;;;;;;;;;;;;;5037494;28;19912;-48
2022/03/31 02:33:59;;;;;;;;;;;;;;;;;;5037686;28;20069;-47
2022/03/31 02:36:26;;;;;;;;;;;;;;;;;;5037741;28;19910;-50
2022/03/31 02:38:51;;;;;;;;;;;;;;;;;;5037817;28;19928;-47
2022/03/31 02:41:16;;;;;;;;;;;;;;;;;;5041570;28;19913;-48
2022/03/31 02:43:42;;;;;;;;;;;;;;;;;;5057814;28;19913;-48
2022/03/31 02:46:08;;;;;;;;;;;;;;;;;;5055746;28;19920;-51
2022/03/31 02:48:33;;;;;;;;;;;;;;;;;;5037894;28;20374;-48
2022/03/31 02:50:58;;;;;;;;;;;;;;;;;;5037400;28;19996;-49
2022/03/31 02:56:07;;;;;;;;;;;;;;;;;;5040456;28;19916;-49
2022/03/31 02:58:32;;;;;;;;;;;;;;;;;;5037654;28;20384;-48
2022/03/31 03:00:57;;;;;;;;;;;;;;;;;;5037419;28;20348;-48
2022/03/31 03:03:23;;;;;;;;;;;;;;;;;;5036934;28;20261;-48
2022/03/31 03:05:48;;;;;;;;;;;;;;;;;;5037044;28;19917;-49
2022/03/31 03:08:14;;;;;;;;;;;;;;;;;;5037508;28;19963;-49
2022/03/31 03:10:39;;;;;;;;;;;;;;;;;;5037048;28;19913;-48
2022/03/31 03:13:05;;;;;;;;;;;;;;;;;;5037232;28;19916;-48
2022/03/31 03:15:30;;;;;;;;;;;;;;;;;;5048283;28;19912;-49
2022/03/31 03:17:55;;;;;;;;;;;;;;;;;;5052441;28;19919;-48
2022/03/31 03:20:20;;;;;;;;;;;;;;;;;;5037192;28;19913;-49
2022/03/31 03:22:45;;;;;;;;;;;;;;;;;;5037199;28;20352;-48
2022/03/31 03:25:11;;;;;;;;;;;;;;;;;;5040905;28;19971;-49
2022/03/31 03:27:36;;;;;;;;;;;;;;;;;;5056437;28;19912;-48
2022/03/31 03:30:01;;;;;;;;;;;;;;;;;;5056490;28;19961;-50
2022/03/31 03:32:26;;;;;;;;;;;;;;;;;;5056567;28;20330;-48
2022/03/31 03:34:51;;;;;;;;;;;;;;;;;;5056634;28;19970;-51
2022/03/31 03:37:16;;;;;;;;;;;;;;;;;;5056399;28;19913;-50
2022/03/31 03:39:43;;;;;;;;;;;;;;;;;;5056663;28;19912;-49
2022/03/31 03:42:08;;;;;;;;;;;;;;;;;;5056558;28;19913;-49
2022/03/31 03:44:35;;;;;;;;;;;;;;;;;;5049317;28;19920;-50
2022/03/31 03:47:00;;;;;;;;;;;;;;;;;;5046359;28;19916;-48
2022/03/31 03:49:25;;;;;;;;;;;;;;;;;;5055166;28;20329;-48
2022/03/31 03:51:50;;;;;;;;;;;;;;;;;;5056127;28;19927;-48
2022/03/31 03:54:15;;;;;;;;;;;;;;;;;;5055902;28;19913;-50
2022/03/31 03:56:40;;;;;;;;;;;;;;;;;;5056149;28;19920;-48
2022/03/31 03:59:05;;;;;;;;;;;;;;;;;;5056261;28;19909;-48
2022/03/31 04:01:31;;;;;;;;;;;;;;;;;;5056222;28;19995;-50
2022/03/31 04:03:57;;;;;;;;;;;;;;;;;;5055554;28;20008;-49
2022/03/31 04:06:22;;;;;;;;;;;;;;;;;;5053366;28;20329;-48
2022/03/31 04:08:47;;;;;;;;;;;;;;;;;;5038260;28;20000;-49
2022/03/31 04:11:12;;;;;;;;;;;;;;;;;;5036079;28;19909;-48
2022/03/31 04:13:37;;;;;;;;;;;;;;;;;;5036004;28;19913;-49
2022/03/31 04:16:03;;;;;;;;;;;;;;;;;;5046400;28;19913;-48
2022/03/31 04:18:28;;;;;;;;;;;;;;;;;;5046234;28;19939;-48
2022/03/31 04:20:54;;;;;;;;;;;;;;;;;;5035954;28;19913;-48
2022/03/31 04:23:19;;;;;;;;;;;;;;;;;;5035720;28;19910;-48
2022/03/31 04:25:44;;;;;;;;;;;;;;;;;;5047182;28;19960;-49
2022/03/31 04:28:09;;;;;;;;;;;;;;;;;;5055825;28;20071;-50
2022/03/31 04:30:34;;;;;;;;;;;;;;;;;;5055539;28;20003;-48
2022/03/31 04:32:59;;;;;;;;;;;;;;;;;;5054350;28;19921;-48
2022/03/31 04:35:24;;;;;;;;;;;;;;;;;;5041988;28;20348;-49
2022/03/31 04:37:50;;;;;;;;;;;;;;;;;;5035376;28;19951;-49
2022/03/31 04:40:15;;;;;;;;;;;;;;;;;;5035637;28;20388;-50
2022/03/31 04:42:40;;;;;;;;;;;;;;;;;;5035404;28;19920;-49
2022/03/31 04:45:05;;;;;;;;;;;;;;;;;;5042250;28;19936;-49
2022/03/31 04:47:31;;;;;;;;;;;;;;;;;;5035396;28;19979;-49
2022/03/31 04:49:56;;;;;;;;;;;;;;;;;;5035809;28;19960;-51
2022/03/31 04:52:21;;;;;;;;;;;;;;;;;;5035045;28;20028;-51
2022/03/31 04:54:46;;;;;;;;;;;;;;;;;;5041219;28;19916;-49
2022/03/31 04:57:11;;;;;;;;;;;;;;;;;;5054921;28;19921;-51
2022/03/31 04:59:36;;;;;;;;;;;;;;;;;;5049991;28;19917;-49
2022/03/31 05:02:01;;;;;;;;;;;;;;;;;;5055243;28;19999;-49
2022/03/31 05:04:28;;;;;;;;;;;;;;;;;;5043369;28;20315;-48
2022/03/31 05:06:53;;;;;;;;;;;;;;;;;;5035012;28;19913;-50
2022/03/31 05:09:20;;;;;;;;;;;;;;;;;;5033837;28;19913;-49
2022/03/31 05:11:45;;;;;;;;;;;;;;;;;;5035247;28;19915;-50
2022/03/31 05:14:10;;;;;;;;;;;;;;;;;;5051455;28;19913;-49
2022/03/31 05:16:35;;;;;;;;;;;;;;;;;;5040812;28;19912;-49
2022/03/31 05:19:00;;;;;;;;;;;;;;;;;;5054243;28;19931;-48
2022/03/31 05:21:25;;;;;;;;;;;;;;;;;;5055216;28;19955;-50
2022/03/31 05:23:50;;;;;;;;;;;;;;;;;;5055184;28;19909;-54
2022/03/31 05:26:15;;;;;;;;;;;;;;;;;;5041865;28;20002;-54
2022/03/31 05:28:41;;;;;;;;;;;;;;;;;;5042673;28;19913;-55
2022/03/31 05:31:07;;;;;;;;;;;;;;;;;;5046029;28;20448;-55
2022/03/31 05:33:32;;;;;;;;;;;;;;;;;;5042355;28;19913;-54
2022/03/31 05:35:58;;;;;;;;;;;;;;;;;;5038363;28;19913;-54
2022/03/31 05:38:23;;;;;;;;;;;;;;;;;;5039766;28;19936;-55
2022/03/31 05:40:48;;;;;;;;;;;;;;;;;;5048054;28;19912;-54
2022/03/31 05:43:13;;;;;;;;;;;;;;;;;;5038321;28;19913;-56
2022/03/31 05:45:39;;;;;;;;;;;;;;;;;;5039348;28;20020;-53
2022/03/31 05:48:04;;;;;;;;;;;;;;;;;;5041948;28;19967;-53
2022/03/31 05:50:29;;;;;;;;;;;;;;;;;;5041182;28;20000;-53
2022/03/31 05:52:54;;;;;;;;;;;;;;;;;;5037044;28;20654;-54
2022/03/31 05:55:20;;;;;;;;;;;;;;;;;;5035016;28;19921;-53
2022/03/31 05:57:45;;;;;;;;;;;;;;;;;;5043406;28;19929;-53
2022/03/31 06:00:10;;;;;;;;;;;;;;;;;;5032388;28;19928;-53
2022/03/31 06:02:35;;;;;;;;;;;;;;;;;;5023377;28;20398;-56
2022/03/31 06:05:00;;;;;;;;;;;;;;;;;;5033653;28;21279;-53
2022/03/31 06:07:28;;;;;;;;;;;;;;;;;;5029276;28;19975;-53
2022/03/31 06:09:53;;;;;;;;;;;;;;;;;;5015351;28;19927;-56
2022/03/31 06:12:19;;;;;;;;;;;;;;;;;;5015130;28;19920;-53
2022/03/31 06:14:45;;;;;;;;;;;;;;;;;;4984235;28;20059;-54
2022/03/31 06:17:10;;;;;;;;;;;;;;;;;;4994381;28;19959;-54
2022/03/31 06:19:35;;;;;;;;;;;;;;;;;;4960459;28;20779;-52
2022/03/31 06:22:00;;;;;;;;;;;;;;;;;;4922248;28;22964;-53
2022/03/31 06:24:25;;;;;;;;;;;;;;;;;;4910274;28;20634;-55
2022/03/31 06:26:50;;;;;;;;;;;;;;;;;;4870603;28;20028;-52
2022/03/31 06:29:15;;;;;;;;;;;;;;;;;;4912131;28;19921;-53
2022/03/31 06:31:41;;;;;;;;;;;;;;;;;;4950691;28;19929;-52
2022/03/31 06:34:06;;;;;;;;;;;;;;;;;;4981211;28;21393;-52
2022/03/31 06:36:31;;;;;;;;;;;;;;;;;;4954346;28;19920;-54
2022/03/31 06:38:56;;;;;;;;;;;;;;;;;;4967161;28;19928;-53
2022/03/31 06:41:21;;;;;;;;;;;;;;;;;;4965568;28;19921;-53
2022/03/31 06:43:47;;;;;;;;;;;;;;;;;;4966430;28;20395;-53
2022/03/31 06:46:12;;;;;;;;;;;;;;;;;;4960032;28;22113;-54
2022/03/31 06:48:37;;;;;;;;;;;;;;;;;;4947053;28;20059;-53
2022/03/31 06:51:03;;;;;;;;;;;;;;;;;;4931506;28;19978;-58
2022/03/31 06:53:28;;;;;;;;;;;;;;;;;;4955441;28;19929;-53
2022/03/31 06:55:53;;;;;;;;;;;;;;;;;;4930659;28;20369;-52
2022/03/31 06:58:21;;;;;;;;;;;;;;;;;;4910876;28;20346;-52
2022/03/31 07:00:46;;;;;;;;;;;;;;;;;;4906970;28;21516;-54
2022/03/31 07:03:12;;;;;;;;;;;;;;;;;;4913756;28;23694;-53
2022/03/31 07:05:37;;;;;;;;;;;;;;;;;;4879160;28;22478;-50
2022/03/31 07:08:02;;;;;;;;;;;;;;;;;;4787898;28;20098;-56
2022/03/31 07:10:27;;;;;;;;;;;;;;;;;;4755205;28;20830;-51
2022/03/31 07:12:52;;;;;;;;;;;;;;;;;;4660315;28;19921;-52
2022/03/31 07:15:19;;;;;;;;;;;;;;;;;;4611917;28;21742;-52
2022/03/31 07:17:44;;;;;;;;;;;;;;;;;;4650411;28;21064;-55
2022/03/31 07:20:09;;;;;;;;;;;;;;;;;;4746977;28;20298;-53
2022/03/31 07:22:35;;;;;;;;;;;;;;;;;;4791857;28;20259;-52
2022/03/31 07:25:01;;;;;;;;;;;;;;;;;;4763989;28;20506;-53
2022/03/31 07:27:26;;;;;;;;;;;;;;;;;;4765872;28;21577;-53
2022/03/31 07:29:51;;;;;;;;;;;;;;;;;;4790173;28;20603;-52
2022/03/31 07:32:16;;;;;;;;;;;;;;;;;;4810754;28;21542;-55
2022/03/31 07:34:41;;;;;;;;;;;;;;;;;;4816710;28;21185;-54
2022/03/31 07:37:07;;;;;;;;;;;;;;;;;;4818470;28;20512;-52
2022/03/31 07:39:34;;;;;;;;;;;;;;;;;;4853278;28;21548;-51
2022/03/31 07:41:59;;;;;;;;;;;;;;;;;;4868875;28;20967;-53
2022/03/31 07:44:24;;;;;;;;;;;;;;;;;;4867402;28;21648;-57
2022/03/31 07:46:51;;;;;;;;;;;;;;;;;;4867515;28;19925;-52
2022/03/31 07:49:16;;;;;;;;;;;;;;;;;;4854862;28;20620;-50
2022/03/31 07:51:42;;;;;;;;;;;;;;;;;;4848078;28;20114;-53
2022/03/31 07:54:07;;;;;;;;;;;;;;;;;;4839096;28;19928;-53
2022/03/31 07:56:32;;;;;;;;;;;;;;;;;;4849625;22;20732;-54
2022/03/31 07:58:57;;;;;;;;;;;;;;;;;;4859006;28;20854;-52
2022/03/31 08:01:22;;;;;;;;;;;;;;;;;;4854514;28;20121;-54
2022/03/31 08:03:48;;;;;;;;;;;;;;;;;;4843313;28;19927;-52
2022/03/31 08:06:14;;;;;;;;;;;;;;;;;;4867432;28;19928;-53
2022/03/31 08:08:39;;;;;;;;;;;;;;;;;;4866008;28;19977;-53
2022/03/31 08:11:04;;;;;;;;;;;;;;;;;;4791066;28;20002;-56
2022/03/31 08:13:29;;;;;;;;;;;;;;;;;;4695971;28;21753;-52
2022/03/31 08:15:54;;;;;;;;;;;;;;;;;;4714320;28;22107;-53
2022/03/31 08:18:19;;;;;;;;;;;;;;;;;;4783818;28;20005;-53
2022/03/31 08:20:44;;;;;;;;;;;;;;;;;;4795132;28;20809;-54
2022/03/31 08:23:09;;;;;;;;;;;;;;;;;;4803666;28;19975;-53
2022/03/31 08:25:35;;;;;;;;;;;;;;;;;;4787894;28;19931;-52
2022/03/31 08:28:00;;;;;;;;;;;;;;;;;;4765420;28;20659;-55
2022/03/31 08:30:25;;;;;;;;;;;;;;;;;;4817274;28;20107;-52
2022/03/31 08:32:50;;;;;;;;;;;;;;;;;;4884661;28;19961;-55
2022/03/31 08:35:15;;;;;;;;;;;;;;;;;;4911938;28;19925;-54
2022/03/31 08:37:41;;;;;;;;;;;;;;;;;;4917872;28;19921;-52
2022/03/31 08:40:06;;;;;;;;;;;;;;;;;;4923029;28;20066;-53
2022/03/31 08:42:31;;;;;;;;;;;;;;;;;;4929833;28;20654;-52
2022/03/31 08:44:56;;;;;;;;;;;;;;;;;;4912023;28;19921;-54
2022/03/31 08:47:22;;;;;;;;;;;;;;;;;;4905719;28;19925;-54
2022/03/31 08:49:47;;;;;;;;;;;;;;;;;;4890465;28;19960;-53
2022/03/31 08:52:12;;;;;;;;;;;;;;;;;;4890622;28;19927;-53
2022/03/31 08:54:37;;;;;;;;;;;;;;;;;;4897456;28;19924;-53
2022/03/31 08:57:02;;;;;;;;;;;;;;;;;;4895813;28;20749;-51
2022/03/31 08:59:27;;;;;;;;;;;;;;;;;;4900085;28;20649;-52
2022/03/31 09:01:52;;;;;;;;;;;;;;;;;;4929458;28;21426;-53
2022/03/31 09:04:17;;;;;;;;;;;;;;;;;;4920480;28;20659;-50
2022/03/31 09:06:43;;;;;;;;;;;;;;;;;;4890299;28;19936;-54
2022/03/31 09:09:08;;;;;;;;;;;;;;;;;;4875889;28;19928;-53
2022/03/31 09:11:33;;;;;;;;;;;;;;;;;;4893717;28;20619;-53
2022/03/31 09:13:58;;;;;;;;;;;;;;;;;;4905105;28;22592;-53
2022/03/31 09:16:23;;;;;;;;;;;;;;;;;;4884836;28;19959;-53
2022/03/31 09:18:48;;;;;;;;;;;;;;;;;;4897321;28;19931;-55
2022/03/31 09:21:15;;;;;;;;;;;;;;;;;;4825467;28;19921;-53
2022/03/31 09:23:41;;;;;;;;;;;;;;;;;;4736800;28;19928;-52
2022/03/31 09:26:08;;;;;;;;;;;;;;;;;;4728045;28;23495;-53
2022/03/31 09:28:33;;;;;;;;;;;;;;;;;;4743243;28;21111;-53
2022/03/31 09:30:58;;;;;;;;;;;;;;;;;;4796905;28;21575;-53
2022/03/31 09:33:23;;;;;;;;;;;;;;;;;;4833139;28;20721;-51
2022/03/31 09:35:48;;;;;;;;;;;;;;;;;;4873586;28;19927;-54
2022/03/31 09:38:13;;;;;;;;;;;;;;;;;;4903584;28;19920;-53
2022/03/31 09:40:38;;;;;;;;;;;;;;;;;;4908608;28;19920;-53
2022/03/31 09:43:03;;;;;;;;;;;;;;;;;;4900149;28;19921;-55
2022/03/31 09:45:29;;;;;;;;;;;;;;;;;;4925826;28;19929;-52
2022/03/31 09:47:55;;;;;;;;;;;;;;;;;;4928411;28;19924;-55
2022/03/31 09:50:20;;;;;;;;;;;;;;;;;;4934482;28;19975;-54
2022/03/31 09:52:45;;;;;;;;;;;;;;;;;;4920591;28;19966;-53
2022/03/31 09:55:10;;;;;;;;;;;;;;;;;;4924913;28;20089;-54
2022/03/31 09:57:35;;;;;;;;;;;;;;;;;;4909592;28;19929;-54
2022/03/31 10:00:00;;;;;;;;;;;;;;;;;;4901761;28;25899;-53
2022/03/31 10:02:26;;;;;;;;;;;;;;;;;;4901743;28;21210;-55
2022/03/31 10:04:51;;;;;;;;;;;;;;;;;;4914317;28;20053;-55
2022/03/31 10:07:16;;;;;;;;;;;;;;;;;;4894332;28;19925;-52
2022/03/31 10:09:41;;;;;;;;;;;;;;;;;;4887647;28;19925;-53
2022/03/31 10:12:06;;;;;;;;;;;;;;;;;;4887420;28;20088;-52
2022/03/31 10:14:31;;;;;;;;;;;;;;;;;;4870422;28;21647;-53
2022/03/31 10:16:57;;;;;;;;;;;;;;;;;;4897241;28;19978;-54
2022/03/31 10:19:23;;;;;;;;;;;;;;;;;;4909902;28;20071;-54
2022/03/31 10:21:49;;;;;;;;;;;;;;;;;;4941353;28;19920;-53
2022/03/31 10:26:58;;;;;;;;;;;;;;;;;;4934221;28;19932;-53
2022/03/31 10:29:24;;;;;;;;;;;;;;;;;;4937079;28;19925;-53
2022/03/31 10:31:49;;;;;;;;;;;;;;;;;;4941650;28;21665;-53
2022/03/31 10:34:14;;;;;;;;;;;;;;;;;;4922165;28;19921;-54
2022/03/31 10:36:40;;;;;;;;;;;;;;;;;;4931831;28;20690;-53
2022/03/31 10:39:06;;;;;;;;;;;;;;;;;;4945465;28;22344;-53
2022/03/31 10:41:31;;;;;;;;;;;;;;;;;;4959257;28;19943;-53
2022/03/31 10:43:58;;;;;;;;;;;;;;;;;;4936739;28;20788;-53
2022/03/31 10:46:23;;;;;;;;;;;;;;;;;;4958609;28;19969;-55
2022/03/31 10:48:48;;;;;;;;;;;;;;;;;;4956818;28;19932;-54
2022/03/31 10:51:13;;;;;;;;;;;;;;;;;;4951367;28;19921;-53
2022/03/31 10:53:42;;;;;;;;;;;;;;;;;;4940291;28;19927;-53
2022/03/31 10:56:07;;;;;;;;;;;;;;;;;;4944432;28;19927;-52
2022/03/31 10:58:32;;;;;;;;;;;;;;;;;;4932334;28;20072;-52
2022/03/31 11:00:57;;;;;;;;;;;;;;;;;;4919322;28;19921;-53
2022/03/31 11:03:23;;;;;;;;;;;;;;;;;;4933827;28;20561;-53
2022/03/31 11:05:48;;;;;;;;;;;;;;;;;;4942506;28;20559;-55
2022/03/31 11:08:19;;;;;;;;;;;;;;;;;;4938972;28;19920;-54
2022/03/31 11:10:45;;;;;;;;;;;;;;;;;;4900465;28;20063;-53
2022/03/31 11:13:11;;;;;;;;;;;;;;;;;;4949828;28;19925;-54
2022/03/31 11:15:36;;;;;;;;;;;;;;;;;;4970966;28;20002;-53
2022/03/31 11:18:01;;;;;;;;;;;;;;;;;;4965762;28;19921;-53
2022/03/31 11:20:27;;;;;;;;;;;;;;;;;;4947634;28;20008;-53
2022/03/31 11:22:53;;;;;;;;;;;;;;;;;;4969613;28;21583;-53
2022/03/31 11:25:18;;;;;;;;;;;;;;;;;;4963935;28;20079;-53
2022/03/31 11:27:43;;;;;;;;;;;;;;;;;;4963672;28;19925;-51
2022/03/31 11:30:08;;;;;;;;;;;;;;;;;;4959203;28;19947;-49
2022/03/31 11:32:34;;;;;;;;;;;;;;;;;;4967696;28;22133;-53
2022/03/31 11:34:59;;;;;;;;;;;;;;;;;;5000222;28;19928;-54
2022/03/31 11:37:24;;;;;;;;;;;;;;;;;;4988595;28;19928;-54
2022/03/31 11:39:49;;;;;;;;;;;;;;;;;;5010276;28;19931;-53
2022/03/31 11:42:14;;;;;;;;;;;;;;;;;;5005806;28;19932;-54
2022/03/31 11:44:41;;;;;;;;;;;;;;;;;;5009637;28;19968;-53
2022/03/31 11:47:07;;;;;;;;;;;;;;;;;;5002752;28;19925;-53
2022/03/31 11:49:32;;;;;;;;;;;;;;;;;;4987578;28;19921;-54
2022/03/31 11:51:57;;;;;;;;;;;;;;;;;;4980813;28;19921;-52
2022/03/31 11:54:22;;;;;;;;;;;;;;;;;;4994622;28;19921;-54
2022/03/31 11:56:47;;;;;;;;;;;;;;;;;;4998764;28;19969;-54
2022/03/31 11:59:14;;;;;;;;;;;;;;;;;;5004387;28;21909;-54
2022/03/31 12:01:48;;;;;;;;;;;;;;;;;;5000966;28;19920;-53
2022/03/31 12:04:13;;;;;;;;;;;;;;;;;;5007189;28;20019;-53
2022/03/31 12:06:38;;;;;;;;;;;;;;;;;;5006717;28;19925;-54
2022/03/31 12:09:05;;;;;;;;;;;;;;;;;;5002476;28;21561;-55
2022/03/31 12:11:30;;;;;;;;;;;;;;;;;;4991070;28;19928;-54
2022/03/31 12:14:00;;;;;;;;;;;;;;;;;;4990566;28;20043;-53
2022/03/31 12:16:26;;;;;;;;;;;;;;;;;;4994329;28;19917;-54
2022/03/31 12:18:51;;;;;;;;;;;;;;;;;;4979280;28;20075;-53
2022/03/31 12:21:16;;;;;;;;;;;;;;;;;;4977592;28;19956;-55
2022/03/31 12:23:41;;;;;;;;;;;;;;;;;;4959111;28;19925;-55
2022/03/31 12:26:06;;;;;;;;;;;;;;;;;;4970307;28;20302;-54
2022/03/31 12:28:32;;;;;;;;;;;;;;;;;;4971414;28;19920;-54
2022/03/31 12:30:57;;;;;;;;;;;;;;;;;;4990732;28;19996;-53
2022/03/31 12:33:22;;;;;;;;;;;;;;;;;;5000610;28;19921;-53
2022/03/31 12:35:47;;;;;;;;;;;;;;;;;;5005644;28;20028;-54
2022/03/31 12:38:12;;;;;;;;;;;;;;;;;;5006130;28;20343;-53
2022/03/31 12:40:38;;;;;;;;;;;;;;;;;;5010381;28;19924;-53
2022/03/31 12:43:03;;;;;;;;;;;;;;;;;;5012751;28;19943;-53
2022/03/31 12:45:34;;;;;;;;;;;;;;;;;;5006912;28;21032;-53
2022/03/31 12:47:59;;;;;;;;;;;;;;;;;;5022094;28;19924;-54
2022/03/31 12:50:24;;;;;;;;;;;;;;;;;;5022893;28;19974;-54
2022/03/31 12:52:50;;;;;;;;;;;;;;;;;;5022520;28;19921;-53
2022/03/31 12:55:15;;;;;;;;;;;;;;;;;;5011950;28;19944;-53
2022/03/31 12:57:40;;;;;;;;;;;;;;;;;;5019549;28;19929;-53
2022/03/31 13:00:05;;;;;;;;;;;;;;;;;;5020822;28;19921;-54
2022/03/31 13:02:30;;;;;;;;;;;;;;;;;;5021636;28;19936;-52
2022/03/31 13:04:56;;;;;;;;;;;;;;;;;;5010319;28;20512;-54
2022/03/31 13:07:27;;;;;;;;;;;;;;;;;;5010206;28;19930;-53
2022/03/31 13:09:52;;;;;;;;;;;;;;;;;;5011596;28;19960;-54
2022/03/31 13:12:17;;;;;;;;;;;;;;;;;;5006171;28;20012;-53
2022/03/31 13:14:42;;;;;;;;;;;;;;;;;;5000076;28;19920;-54
2022/03/31 13:17:08;;;;;;;;;;;;;;;;;;5009320;28;19928;-53
2022/03/31 13:19:33;;;;;;;;;;;;;;;;;;5023937;28;22047;-55
2022/03/31 13:21:58;;;;;;;;;;;;;;;;;;5035091;28;20310;-55
2022/03/31 13:24:23;;;;;;;;;;;;;;;;;;5027114;28;19913;-53
2022/03/31 13:26:48;;;;;;;;;;;;;;;;;;5031937;28;19963;-53
2022/03/31 13:29:16;;;;;;;;;;;;;;;;;;5026676;28;20220;-53
2022/03/31 13:31:42;;;;;;;;;;;;;;;;;;5030733;28;20371;-54
2022/03/31 13:34:08;;;;;;;;;;;;;;;;;;5037949;28;19944;-53
2022/03/31 13:36:33;;;;;;;;;;;;;;;;;;5039037;28;19952;-53
2022/03/31 13:38:58;;;;;;;;;;;;;;;;;;5032639;28;19918;-53
2022/03/31 13:41:24;;;;;;;;;;;;;;;;;;5024682;28;19924;-54
2022/03/31 13:43:49;;;;;;;;;;;;;;;;;;5036589;28;20314;-54
2022/03/31 13:46:15;;;;;;;;;;;;;;;;;;5042298;28;20035;-53
2022/03/31 13:48:40;;;;;;;;;;;;;;;;;;5041897;28;19912;-54
2022/03/31 13:51:05;;;;;;;;;;;;;;;;;;5043183;28;19927;-54
2022/03/31 13:53:45;;;;;;;;;;;;;;;;;;5043028;28;19921;-53
2022/03/31 13:56:11;;;;;;;;;;;;;;;;;;5042545;28;19971;-54
2022/03/31 14:01:20;;;;;;;;;;;;;;;;;;5034742;28;20058;-56
2022/03/31 14:03:45;;;;;;;;;;;;;;;;;;5033080;28;19921;-54
2022/03/31 14:06:13;;;;;;;;;;;;;;;;;;5025407;28;19924;-53
2022/03/31 14:08:38;;;;;;;;;;;;;;;;;;5036667;28;19928;-51
2022/03/31 14:11:04;;;;;;;;;;;;;;;;;;5038946;28;19921;-54
2022/03/31 14:13:29;;;;;;;;;;;;;;;;;;5031442;28;19944;-53
2022/03/31 14:15:55;;;;;;;;;;;;;;;;;;5042548;28;19913;-53
2022/03/31 14:18:21;;;;;;;;;;;;;;;;;;5045107;28;20357;-54
2022/03/31 14:20:46;;;;;;;;;;;;;;;;;;5044989;28;19917;-54
2022/03/31 14:23:11;;;;;;;;;;;;;;;;;;5042366;28;19952;-55
2022/03/31 14:25:37;;;;;;;;;;;;;;;;;;5044106;28;19921;-54
2022/03/31 14:28:02;;;;;;;;;;;;;;;;;;5048269;28;19925;-53
2022/03/31 14:30:27;;;;;;;;;;;;;;;;;;5047019;28;19913;-53
2022/03/31 14:32:52;;;;;;;;;;;;;;;;;;5045511;28;20286;-53
2022/03/31 14:35:18;;;;;;;;;;;;;;;;;;5048059;28;21273;-53
2022/03/31 14:37:43;;;;;;;;;;;;;;;;;;5045827;28;19913;-53
2022/03/31 14:40:08;;;;;;;;;;;;;;;;;;5046042;28;19913;-59
2022/03/31 14:42:33;;;;;;;;;;;;;;;;;;5046646;28;19936;-54
2022/03/31 14:44:59;;;;;;;;;;;;;;;;;;5045747;28;20325;-53
2022/03/31 14:47:24;;;;;;;;;;;;;;;;;;5049546;28;19921;-53
2022/03/31 14:49:49;;;;;;;;;;;;;;;;;;5051075;28;19913;-55
2022/03/31 14:52:14;;;;;;;;;;;;;;;;;;5048364;28;20399;-53
2022/03/31 14:54:40;;;;;;;;;;;;;;;;;;5051151;28;19917;-53
2022/03/31 14:57:05;;;;;;;;;;;;;;;;;;5045445;28;19925;-53
2022/03/31 14:59:30;;;;;;;;;;;;;;;;;;5049931;28;19962;-54
2022/03/31 15:01:56;;;;;;;;;;;;;;;;;;5049287;28;19958;-53
2022/03/31 15:04:21;;;;;;;;;;;;;;;;;;5044877;28;19917;-55
2022/03/31 15:06:47;;;;;;;;;;;;;;;;;;5050836;28;19932;-53
2022/03/31 15:14:41;;;;;;;;;;;;;;;;;;5052023;28;19920;-54
2022/03/31 15:17:07;;;;;;;;;;;;;;;;;;5051019;28;19913;-54
2022/03/31 15:19:32;;;;;;;;;;;;;;;;;;5047243;28;19982;-54
2022/03/31 15:21:57;;;;;;;;;;;;;;;;;;5045219;28;20359;-51
2022/03/31 15:24:22;;;;;;;;;;;;;;;;;;5042507;28;20026;-51
2022/03/31 15:26:47;;;;;;;;;;;;;;;;;;5046523;28;19924;-48
2022/03/31 15:29:12;;;;;;;;;;;;;;;;;;5046177;28;19913;-49
2022/03/31 15:31:38;;;;;;;;;;;;;;;;;;5041355;28;20015;-48
2022/03/31 15:34:03;;;;;;;;;;;;;;;;;;5042337;28;19921;-50
2022/03/31 15:36:28;;;;;;;;;;;;;;;;;;5046131;28;19921;-49
2022/03/31 15:38:53;;;;;;;;;;;;;;;;;;5047299;28;21039;-51
2022/03/31 15:41:18;;;;;;;;;;;;;;;;;;5037671;28;19913;-51
2022/03/31 15:43:45;;;;;;;;;;;;;;;;;;5046936;28;19912;-49
2022/03/31 15:46:14;;;;;;;;;;;;;;;;;;5042136;28;19913;-49
2022/03/31 15:48:39;;;;;;;;;;;;;;;;;;5040469;28;20008;-50
2022/03/31 15:51:04;;;;;;;;;;;;;;;;;;5049593;28;19999;-49
2022/03/31 15:53:29;;;;;;;;;;;;;;;;;;5044984;28;19936;-50
2022/03/31 15:55:54;;;;;;;;;;;;;;;;;;5047930;28;19913;-49
2022/03/31 15:58:19;;;;;;;;;;;;;;;;;;5039514;28;19921;-49
2022/03/31 16:00:45;;;;;;;;;;;;;;;;;;5039772;28;19943;-49
2022/03/31 16:03:12;;;;;;;;;;;;;;;;;;5047038;28;19917;-48
2022/03/31 16:05:37;;;;;;;;;;;;;;;;;;5043019;28;20002;-49
2022/03/31 16:08:02;;;;;;;;;;;;;;;;;;5049752;28;19963;-48
2022/03/31 16:10:27;;;;;;;;;;;;;;;;;;5039717;28;19957;-49
2022/03/31 16:12:52;;;;;;;;;;;;;;;;;;5047739;28;20435;-50
2022/03/31 16:15:18;;;;;;;;;;;;;;;;;;5055987;28;19913;-48
2022/03/31 16:17:43;;;;;;;;;;;;;;;;;;5051697;28;19919;-48
2022/03/31 16:20:08;;;;;;;;;;;;;;;;;;5036951;28;19913;-48
2022/03/31 16:22:33;;;;;;;;;;;;;;;;;;5044285;28;19951;-48
2022/03/31 16:24:58;;;;;;;;;;;;;;;;;;5051529;28;19962;-48
2022/03/31 16:27:23;;;;;;;;;;;;;;;;;;5051969;28;19924;-48
2022/03/31 16:29:49;;;;;;;;;;;;;;;;;;5042881;28;19955;-49
2022/03/31 16:32:14;;;;;;;;;;;;;;;;;;5045503;28;20028;-48
2022/03/31 16:34:39;;;;;;;;;;;;;;;;;;5051841;28;20297;-47
2022/03/31 16:37:04;;;;;;;;;;;;;;;;;;5043626;28;19913;-50
2022/03/31 16:39:30;;;;;;;;;;;;;;;;;;5052256;28;19912;-50
2022/03/31 16:41:55;;;;;;;;;;;;;;;;;;5045346;28;19917;-48
2022/03/31 16:44:23;;;;;;;;;;;;;;;;;;5035398;28;19909;-50
2022/03/31 16:46:48;;;;;;;;;;;;;;;;;;5052814;28;19942;-49